createdAt,value
2023-04-19T00:00:33.110Z,102623.81
2023-04-19T00:03:00.789Z,102616.44
2023-04-19T00:05:28.344Z,102618.19
2023-04-19T00:07:54.929Z,102610.97
2023-04-19T00:10:21.365Z,102618.19
2023-04-19T00:12:47.836Z,102618.19
2023-04-19T00:15:14.358Z,102613.56
2023-04-19T00:17:41.806Z,102616.31
2023-04-19T00:20:10.471Z,102609.81
2023-04-19T00:22:37.070Z,102608.97
2023-04-19T00:25:03.894Z,102609.81
2023-04-19T00:27:30.532Z,102610.69
2023-04-19T00:30:00.236Z,102606.22
2023-04-19T00:32:26.988Z,102606.22
2023-04-19T00:34:53.562Z,102602.63
2023-04-19T00:37:21.503Z,102608.97
2023-04-19T00:39:48.040Z,102606.22
2023-04-19T00:42:14.510Z,102597.16
2023-04-19T00:44:41.039Z,102602.63
2023-04-19T00:47:08.915Z,102602.63
2023-04-19T00:49:35.765Z,102593.53
2023-04-19T00:52:02.446Z,102597.16
2023-04-19T00:54:30.061Z,102599.03
2023-04-19T00:56:57.005Z,102595.41
2023-04-19T00:59:24.665Z,102588.06
2023-04-19T01:01:51.440Z,102587.22
2023-04-19T01:04:18.723Z,102592.69
2023-04-19T01:06:46.610Z,102580.00
2023-04-19T01:09:13.073Z,102578.28
2023-04-19T01:11:43.222Z,102573.66
2023-04-19T01:14:10.307Z,102574.66
2023-04-19T01:16:38.978Z,102569.34
2023-04-19T01:19:05.695Z,102568.34
2023-04-19T01:21:32.536Z,102570.19
2023-04-19T01:23:59.014Z,102578.41
2023-04-19T01:26:25.558Z,102573.81
2023-04-19T01:28:52.074Z,102571.06
2023-04-19T01:31:18.571Z,102576.69
2023-04-19T01:33:45.141Z,102568.47
2023-04-19T01:36:12.948Z,102566.59
2023-04-19T01:38:41.284Z,102567.47
2023-04-19T01:41:09.470Z,102570.19
2023-04-19T01:43:36.000Z,102566.59
2023-04-19T01:46:03.423Z,102556.50
2023-04-19T01:48:29.925Z,102564.72
2023-04-19T01:50:56.457Z,102566.59
2023-04-19T01:53:23.071Z,102565.59
2023-04-19T01:55:49.894Z,102564.72
2023-04-19T01:58:16.405Z,102561.13
2023-04-19T02:00:44.173Z,102569.19
2023-04-19T02:03:10.812Z,102567.31
2023-04-19T02:05:39.358Z,102560.13
2023-04-19T02:08:05.949Z,102557.38
2023-04-19T02:10:32.427Z,102562.84
2023-04-19T02:12:58.907Z,102567.47
2023-04-19T02:15:25.393Z,102567.47
2023-04-19T02:17:51.954Z,102568.34
2023-04-19T02:20:19.209Z,102562.00
2023-04-19T02:22:45.868Z,102559.25
2023-04-19T02:25:12.510Z,102558.38
2023-04-19T02:27:39.027Z,102560.25
2023-04-19T02:30:06.207Z,102557.38
2023-04-19T02:32:33.993Z,102561.13
2023-04-19T02:35:01.014Z,102558.38
2023-04-19T02:37:29.223Z,102562.00
2023-04-19T02:39:56.984Z,102560.25
2023-04-19T02:42:23.457Z,102566.59
2023-04-19T02:44:49.961Z,102560.13
2023-04-19T02:47:16.462Z,102561.13
2023-04-19T02:49:42.931Z,102567.47
2023-04-19T02:52:10.179Z,102559.25
2023-04-19T02:54:39.841Z,102562.00
2023-04-19T02:57:07.576Z,102569.34
2023-04-19T02:59:35.317Z,102564.72
2023-04-19T03:02:04.146Z,102573.81
2023-04-19T03:04:31.366Z,102569.34
2023-04-19T03:06:58.353Z,102572.06
2023-04-19T03:09:24.847Z,102571.06
2023-04-19T03:11:51.354Z,102569.19
2023-04-19T03:14:17.998Z,102562.00
2023-04-19T03:16:44.619Z,102562.00
2023-04-19T03:19:11.223Z,102566.47
2023-04-19T03:21:45.056Z,102559.25
2023-04-19T03:24:12.373Z,102556.50
2023-04-19T03:26:42.857Z,102548.31
2023-04-19T03:29:09.715Z,102554.63
2023-04-19T03:31:42.793Z,102557.53
2023-04-19T03:34:12.099Z,102554.63
2023-04-19T03:36:43.113Z,102551.91
2023-04-19T03:39:09.719Z,102555.50
2023-04-19T03:41:40.420Z,102555.50
2023-04-19T03:44:21.308Z,102556.50
2023-04-19T03:46:48.917Z,102558.25
2023-04-19T03:49:19.394Z,102551.03
2023-04-19T03:51:51.340Z,102560.97
2023-04-19T03:54:18.058Z,102561.84
2023-04-19T03:56:44.669Z,102555.50
2023-04-19T03:59:13.110Z,102555.38
2023-04-19T04:01:42.301Z,102562.72
2023-04-19T04:04:09.675Z,102560.84
2023-04-19T04:06:36.441Z,102566.31
2023-04-19T04:09:03.081Z,102561.69
2023-04-19T04:11:30.864Z,102561.69
2023-04-19T04:13:57.736Z,102564.28
2023-04-19T04:16:28.092Z,102568.03
2023-04-19T04:18:55.765Z,102569.03
2023-04-19T04:21:27.119Z,102568.03
2023-04-19T04:23:55.704Z,102574.38
2023-04-19T04:26:39.297Z,102574.53
2023-04-19T04:29:13.565Z,102561.84
2023-04-19T04:31:41.787Z,102565.31
2023-04-19T04:34:09.978Z,102567.16
2023-04-19T04:36:43.647Z,102570.78
2023-04-19T04:39:11.964Z,102555.38
2023-04-19T04:41:42.149Z,102562.56
2023-04-19T04:44:12.461Z,102563.44
2023-04-19T04:46:40.106Z,102559.81
2023-04-19T04:49:07.898Z,102555.22
2023-04-19T04:51:34.864Z,102555.22
2023-04-19T04:54:01.606Z,102563.44
2023-04-19T04:56:28.630Z,102559.81
2023-04-19T04:58:55.681Z,102558.81
2023-04-19T05:01:28.276Z,102552.47
2023-04-19T05:03:55.030Z,102557.94
2023-04-19T05:06:21.625Z,102562.41
2023-04-19T05:08:48.185Z,102565.16
2023-04-19T05:11:20.931Z,102570.63
2023-04-19T05:13:47.610Z,102564.28
2023-04-19T05:16:15.064Z,102567.91
2023-04-19T05:18:44.930Z,102573.38
2023-04-19T05:21:11.525Z,102569.63
2023-04-19T05:23:39.242Z,102574.22
2023-04-19T05:26:05.835Z,102574.22
2023-04-19T05:28:32.594Z,102574.22
2023-04-19T05:31:08.208Z,102578.84
2023-04-19T05:33:41.634Z,102576.97
2023-04-19T05:36:09.535Z,102576.97
2023-04-19T05:38:36.129Z,102576.81
2023-04-19T05:41:04.952Z,102579.56
2023-04-19T05:43:31.504Z,102568.63
2023-04-19T05:45:58.502Z,102574.09
2023-04-19T05:48:28.313Z,102580.44
2023-04-19T05:51:14.445Z,102590.50
2023-04-19T05:53:50.008Z,102578.69
2023-04-19T05:56:16.668Z,102581.44
2023-04-19T05:58:43.236Z,102573.06
2023-04-19T06:01:09.810Z,102578.56
2023-04-19T06:03:36.420Z,102576.69
2023-04-19T06:06:03.378Z,102574.94
2023-04-19T06:08:30.069Z,102573.94
2023-04-19T06:11:02.262Z,102573.94
2023-04-19T06:13:34.735Z,102581.28
2023-04-19T06:16:01.309Z,102573.06
2023-04-19T06:18:27.914Z,102574.94
2023-04-19T06:20:54.585Z,102579.56
2023-04-19T06:23:21.113Z,102572.22
2023-04-19T06:25:48.987Z,102575.97
2023-04-19T06:28:15.794Z,102577.84
2023-04-19T06:30:42.275Z,102583.31
2023-04-19T06:33:08.731Z,102586.06
2023-04-19T06:35:35.281Z,102598.00
2023-04-19T06:38:01.907Z,102587.06
2023-04-19T06:40:29.401Z,102594.25
2023-04-19T06:42:56.151Z,102578.84
2023-04-19T06:45:22.962Z,102577.13
2023-04-19T06:47:49.467Z,102578.84
2023-04-19T06:50:16.809Z,102581.59
2023-04-19T06:52:43.276Z,102583.59
2023-04-19T06:55:09.913Z,102590.81
2023-04-19T06:57:36.466Z,102579.00
2023-04-19T07:00:04.215Z,102587.06
2023-04-19T07:02:30.800Z,102589.06
2023-04-19T07:04:57.384Z,102584.47
2023-04-19T07:07:23.858Z,102575.38
2023-04-19T07:09:50.726Z,102593.69
2023-04-19T07:12:17.181Z,102574.66
2023-04-19T07:14:43.668Z,102575.53
2023-04-19T07:17:10.165Z,102573.81
2023-04-19T07:19:36.754Z,102575.53
2023-04-19T07:22:05.327Z,102573.81
2023-04-19T07:24:32.048Z,102574.66
2023-04-19T07:26:58.615Z,102582.00
2023-04-19T07:29:25.185Z,102590.22
2023-04-19T07:31:52.050Z,102579.28
2023-04-19T07:34:18.568Z,102588.50
2023-04-19T07:36:45.340Z,102583.88
2023-04-19T07:39:11.916Z,102580.28
2023-04-19T07:41:38.375Z,102582.16
2023-04-19T07:44:05.179Z,102575.81
2023-04-19T07:46:31.728Z,102577.69
2023-04-19T07:48:58.284Z,102585.75
2023-04-19T07:51:25.144Z,102589.50
2023-04-19T07:53:51.842Z,102587.63
2023-04-19T07:56:19.956Z,102585.91
2023-04-19T07:58:50.819Z,102585.91
2023-04-19T08:01:23.555Z,102576.69
2023-04-19T08:03:50.323Z,102580.44
2023-04-19T08:06:18.025Z,102574.09
2023-04-19T08:08:44.552Z,102579.44
2023-04-19T08:11:11.069Z,102583.16
2023-04-19T08:13:37.916Z,102576.69
2023-04-19T08:18:36.203Z,102581.28
2023-04-19T08:21:03.024Z,102586.78
2023-04-19T08:23:34.913Z,102584.91
2023-04-19T08:26:04.483Z,102573.53
2023-04-19T08:28:31.323Z,102576.25
2023-04-19T08:30:59.085Z,102571.50
2023-04-19T08:33:25.546Z,102588.78
2023-04-19T08:35:52.002Z,102570.63
2023-04-19T08:38:18.465Z,102574.25
2023-04-19T08:40:55.669Z,102569.63
2023-04-19T08:43:25.763Z,102576.97
2023-04-19T08:45:53.349Z,102586.06
2023-04-19T08:48:21.937Z,102583.31
2023-04-19T08:51:04.012Z,102575.09
2023-04-19T08:53:34.931Z,102572.38
2023-04-19T08:58:46.484Z,102565.16
2023-04-19T09:01:34.111Z,102567.03
2023-04-19T09:04:17.163Z,102567.03
2023-04-19T09:06:53.487Z,102568.91
2023-04-19T09:11:58.295Z,102565.16
2023-04-19T09:14:26.769Z,102560.69
2023-04-19T09:16:53.315Z,102560.56
2023-04-19T09:19:24.928Z,102581.59
2023-04-19T09:21:54.149Z,102570.63
2023-04-19T09:25:13.595Z,102566.88
2023-04-19T09:27:28.089Z,102567.03
2023-04-19T09:29:59.456Z,102581.44
2023-04-19T09:32:27.279Z,102583.31
2023-04-19T09:34:59.154Z,102564.16
2023-04-19T09:37:51.285Z,102552.19
2023-04-19T09:40:24.333Z,102564.16
2023-04-19T09:45:30.114Z,102566.88
2023-04-19T09:48:07.486Z,102575.97
2023-04-19T09:50:50.315Z,102555.06
2023-04-19T09:53:23.395Z,102552.34
2023-04-19T09:56:00.612Z,102549.47
2023-04-19T09:58:37.714Z,102548.59
2023-04-19T10:01:16.287Z,102537.50
2023-04-19T10:03:49.955Z,102540.94
2023-04-19T10:08:50.062Z,102546.44
2023-04-19T10:11:17.872Z,102540.81
2023-04-19T10:13:47.200Z,102541.53
2023-04-19T10:16:19.755Z,102536.91
2023-04-19T10:18:49.849Z,102536.78
2023-04-19T10:21:17.206Z,102542.25
2023-04-19T10:23:44.004Z,102530.28
2023-04-19T10:26:10.478Z,102542.97
2023-04-19T10:28:38.058Z,102532.00
2023-04-19T10:31:05.156Z,102536.47
2023-04-19T10:33:35.608Z,102522.63
2023-04-19T10:36:02.726Z,102530.72
2023-04-19T10:38:40.452Z,102531.56
2023-04-19T10:41:14.567Z,102533.44
2023-04-19T10:43:48.007Z,102533.31
2023-04-19T10:46:15.934Z,102527.81
2023-04-19T10:48:58.466Z,102525.94
2023-04-19T10:51:32.449Z,102517.72
2023-04-19T10:54:00.576Z,102516.88
2023-04-19T10:56:33.436Z,102518.59
2023-04-19T10:59:04.777Z,102515.84
2023-04-19T11:01:42.879Z,102505.78
2023-04-19T11:04:14.323Z,102509.38
2023-04-19T11:06:53.100Z,102501.31
2023-04-19T11:09:38.245Z,102502.03
2023-04-19T11:12:12.728Z,102501.31
2023-04-19T11:14:43.323Z,102503.19
2023-04-19T11:17:27.483Z,102489.34
2023-04-19T11:20:01.969Z,102489.34
2023-04-19T11:22:47.366Z,102478.38
2023-04-19T11:25:18.944Z,102484.31
2023-04-19T11:27:48.041Z,102484.31
2023-04-19T11:30:17.109Z,102485.88
2023-04-19T11:32:53.673Z,102476.66
2023-04-19T11:35:21.797Z,102473.91
2023-04-19T11:37:48.732Z,102467.44
2023-04-19T11:40:17.280Z,102467.44
2023-04-19T11:42:44.538Z,102456.34
2023-04-19T11:45:26.032Z,102459.06
2023-04-19T11:47:53.096Z,102455.47
2023-04-19T11:50:36.214Z,102443.50
2023-04-19T11:53:16.517Z,102446.09
2023-04-19T11:55:53.603Z,102443.50
2023-04-19T11:58:36.245Z,102453.44
2023-04-19T12:01:08.127Z,102441.78
2023-04-19T12:03:45.643Z,102426.22
2023-04-19T12:06:17.980Z,102427.06
2023-04-19T12:08:47.376Z,102430.69
2023-04-19T12:11:15.628Z,102425.19
2023-04-19T12:13:44.299Z,102418.84
2023-04-19T12:16:12.161Z,102415.09
2023-04-19T12:18:56.743Z,102410.50
2023-04-19T12:21:32.945Z,102414.09
2023-04-19T12:24:02.027Z,102410.50
2023-04-19T12:26:29.787Z,102402.13
2023-04-19T12:28:57.740Z,102410.34
2023-04-19T12:31:24.718Z,102408.47
2023-04-19T12:33:51.619Z,102397.50
2023-04-19T12:36:18.148Z,102401.97
2023-04-19T12:38:44.826Z,102395.63
2023-04-19T12:41:11.396Z,102400.09
2023-04-19T12:43:38.129Z,102386.41
2023-04-19T12:46:05.173Z,102391.88
2023-04-19T12:48:31.708Z,102386.41
2023-04-19T12:50:58.357Z,102382.81
2023-04-19T12:53:25.293Z,102381.78
2023-04-19T12:55:51.827Z,102370.84
2023-04-19T12:58:18.762Z,102371.72
2023-04-19T13:00:45.453Z,102374.44
2023-04-19T13:03:12.736Z,102368.97
2023-04-19T13:05:39.530Z,102367.94
2023-04-19T13:08:06.460Z,102362.47
2023-04-19T13:10:33.018Z,102357.00
2023-04-19T13:13:00.702Z,102368.81
2023-04-19T13:15:28.675Z,102357.00
2023-04-19T13:17:55.684Z,102346.03
2023-04-19T13:20:22.194Z,102346.91
2023-04-19T13:22:48.700Z,102345.91
2023-04-19T13:25:15.216Z,102342.28
2023-04-19T13:27:41.815Z,102353.25
2023-04-19T13:30:08.692Z,102339.56
2023-04-19T13:32:35.227Z,102337.69
2023-04-19T13:35:01.698Z,102340.41
2023-04-19T13:37:28.379Z,102325.88
2023-04-19T13:40:01.335Z,102328.44
2023-04-19T13:42:37.825Z,102322.09
2023-04-19T13:45:04.723Z,102316.63
2023-04-19T13:47:31.243Z,102320.22
2023-04-19T13:49:57.701Z,102322.97
2023-04-19T13:52:24.240Z,102318.34
2023-04-19T13:54:50.868Z,102315.63
2023-04-19T13:57:17.353Z,102320.09
2023-04-19T13:59:43.836Z,102316.31
2023-04-19T14:02:10.375Z,102304.50
2023-04-19T14:04:37.088Z,102310.84
2023-04-19T14:07:03.576Z,102309.84
2023-04-19T14:09:30.272Z,102294.25
2023-04-19T14:11:56.772Z,102280.41
2023-04-19T14:14:23.270Z,102298.56
2023-04-19T14:16:49.953Z,102290.34
2023-04-19T14:19:16.726Z,102286.44
2023-04-19T14:21:43.225Z,102277.38
2023-04-19T14:24:09.882Z,102278.94
2023-04-19T14:26:36.491Z,102270.72
2023-04-19T14:29:03.002Z,102260.50
2023-04-19T14:31:29.627Z,102257.75
2023-04-19T14:33:56.668Z,102263.94
2023-04-19T14:36:23.148Z,102262.94
2023-04-19T14:38:49.647Z,102259.19
2023-04-19T14:41:16.142Z,102247.19
2023-04-19T14:43:42.620Z,102247.03
2023-04-19T14:46:09.346Z,102248.78
2023-04-19T14:48:38.788Z,102245.88
2023-04-19T14:51:07.036Z,102247.44
2023-04-19T14:53:34.126Z,102246.44
2023-04-19T14:56:03.950Z,102233.44
2023-04-19T14:58:30.417Z,102233.44
2023-04-19T15:00:58.742Z,102231.41
2023-04-19T15:03:25.953Z,102234.84
2023-04-19T15:05:52.734Z,102227.47
2023-04-19T15:08:30.078Z,102228.34
2023-04-19T15:10:57.534Z,102229.03
2023-04-19T15:13:24.160Z,102228.75
2023-04-19T15:15:51.209Z,102216.78
2023-04-19T15:18:17.772Z,102215.59
2023-04-19T15:20:44.251Z,102217.16
2023-04-19T15:23:10.736Z,102217.16
2023-04-19T15:25:37.290Z,102226.97
2023-04-19T15:28:03.955Z,102217.72
2023-04-19T15:30:30.504Z,102220.31
2023-04-19T15:32:57.034Z,102203.69
2023-04-19T15:35:23.589Z,102200.63
2023-04-19T15:37:50.110Z,102202.34
2023-04-19T15:40:17.122Z,102205.81
2023-04-19T15:42:43.704Z,102203.94
2023-04-19T15:45:10.668Z,102200.00
2023-04-19T15:47:37.215Z,102200.88
2023-04-19T15:50:04.695Z,102199.69
2023-04-19T15:52:31.405Z,102189.59
2023-04-19T15:54:58.000Z,102197.66
2023-04-19T15:57:24.703Z,102195.75
2023-04-19T15:59:51.221Z,102190.97
2023-04-19T16:02:17.772Z,102192.69
2023-04-19T16:04:47.846Z,102190.66
2023-04-19T16:07:14.607Z,102194.09
2023-04-19T16:09:41.149Z,102195.81
2023-04-19T16:12:07.631Z,102193.78
2023-04-19T16:14:34.280Z,102201.84
2023-04-19T16:17:01.083Z,102189.84
2023-04-19T16:19:27.552Z,102190.56
2023-04-19T16:21:54.041Z,102187.66
2023-04-19T16:24:20.582Z,102181.16
2023-04-19T16:26:47.093Z,102183.72
2023-04-19T16:29:13.597Z,102174.47
2023-04-19T16:31:40.082Z,102175.34
2023-04-19T16:34:06.674Z,102176.94
2023-04-19T16:36:33.217Z,102178.66
2023-04-19T16:39:00.417Z,102174.88
2023-04-19T16:41:26.972Z,102171.97
2023-04-19T16:43:55.559Z,102172.69
2023-04-19T16:46:22.697Z,102173.53
2023-04-19T16:48:49.175Z,102168.75
2023-04-19T16:51:15.753Z,102173.22
2023-04-19T16:53:43.557Z,102170.31
2023-04-19T16:56:10.082Z,102160.03
2023-04-19T16:58:36.695Z,102170.00
2023-04-19T17:01:03.448Z,102173.25
2023-04-19T17:03:33.176Z,102159.56
2023-04-19T17:06:01.139Z,102161.09
2023-04-19T17:08:27.697Z,102161.09
2023-04-19T17:10:54.227Z,102153.75
2023-04-19T17:13:20.818Z,102160.94
2023-04-19T17:15:47.427Z,102166.31
2023-04-19T17:18:13.963Z,102155.31
2023-04-19T17:20:41.252Z,102168.88
2023-04-19T17:23:07.779Z,102168.00
2023-04-19T17:25:34.292Z,102157.91
2023-04-19T17:28:00.775Z,102157.91
2023-04-19T17:30:27.724Z,102159.63
2023-04-19T17:32:54.234Z,102163.38
2023-04-19T17:35:20.862Z,102160.66
2023-04-19T17:37:47.605Z,102158.75
2023-04-19T17:40:14.134Z,102167.84
2023-04-19T17:42:40.621Z,102158.75
2023-04-19T17:45:11.282Z,102160.66
2023-04-19T17:47:41.089Z,102155.00
2023-04-19T17:50:10.423Z,102163.22
2023-04-19T17:52:37.455Z,102158.75
2023-04-19T17:55:04.728Z,102158.75
2023-04-19T17:57:33.714Z,102157.03
2023-04-19T18:00:01.235Z,102157.91
2023-04-19T18:02:27.879Z,102157.03
2023-04-19T18:04:54.896Z,102154.31
2023-04-19T18:07:21.489Z,102160.81
2023-04-19T18:09:48.004Z,102157.22
2023-04-19T18:12:14.502Z,102153.56
2023-04-19T18:14:41.084Z,102160.94
2023-04-19T18:17:08.006Z,102160.25
2023-04-19T18:19:34.545Z,102164.00
2023-04-19T18:22:01.706Z,102167.94
2023-04-19T18:24:28.271Z,102160.03
2023-04-19T18:26:55.113Z,102169.28
2023-04-19T18:29:23.164Z,102168.59
2023-04-19T18:31:49.746Z,102175.09
2023-04-19T18:34:16.308Z,102177.16
2023-04-19T18:36:43.094Z,102179.19
2023-04-19T18:39:09.687Z,102183.97
2023-04-19T18:41:36.294Z,102179.50
2023-04-19T18:46:33.171Z,102177.22
2023-04-19T18:48:59.678Z,102191.09
2023-04-19T18:51:27.222Z,102198.63
2023-04-19T18:53:53.663Z,102199.66
2023-04-19T18:56:20.356Z,102207.00
2023-04-19T18:58:48.191Z,102208.19
2023-04-19T19:01:15.038Z,102210.06
2023-04-19T19:04:02.876Z,102205.78
2023-04-19T19:06:28.130Z,102215.00
2023-04-19T19:08:55.072Z,102218.06
2023-04-19T19:11:44.934Z,102222.69
2023-04-19T19:14:09.326Z,102219.25
2023-04-19T19:16:49.967Z,102223.03
2023-04-19T19:19:20.675Z,102223.19
2023-04-19T19:21:47.464Z,102229.69
2023-04-19T19:24:14.026Z,102234.31
2023-04-19T19:26:40.529Z,102237.19
2023-04-19T19:29:09.231Z,102242.69
2023-04-19T19:31:36.577Z,102233.75
2023-04-19T19:34:13.749Z,102236.50
2023-04-19T19:36:48.924Z,102240.75
2023-04-19T19:39:15.679Z,102242.78
2023-04-19T19:44:12.124Z,102240.91
2023-04-19T19:46:39.054Z,102241.91
2023-04-19T19:49:06.620Z,102242.78
2023-04-19T19:54:02.926Z,102253.03
2023-04-19T19:56:29.503Z,102260.41
2023-04-19T20:01:23.261Z,102265.00
2023-04-19T20:03:50.784Z,102261.41
2023-04-19T20:07:07.790Z,102264.16
2023-04-19T20:09:04.586Z,102264.47
2023-04-19T20:11:31.294Z,102267.22
2023-04-19T20:13:57.855Z,102269.94
2023-04-19T20:16:24.537Z,102272.69
2023-04-19T20:18:52.572Z,102270.97
2023-04-19T20:21:19.690Z,102263.59
2023-04-19T20:23:46.230Z,102265.66
2023-04-19T20:26:12.643Z,102271.97
2023-04-19T20:28:39.123Z,102270.25
2023-04-19T20:31:06.121Z,102273.88
2023-04-19T20:33:32.660Z,102270.25
2023-04-19T20:36:00.563Z,102274.03
2023-04-19T20:38:27.114Z,102277.78
2023-04-19T20:40:53.857Z,102272.31
2023-04-19T20:43:20.519Z,102269.56
2023-04-19T20:45:47.325Z,102261.66
2023-04-19T20:48:13.957Z,102268.84
2023-04-19T20:50:41.344Z,102268.84
2023-04-19T20:53:07.858Z,102271.75
2023-04-19T20:55:34.829Z,102267.13
2023-04-19T20:58:02.506Z,102275.34
2023-04-19T21:00:29.090Z,102273.63
2023-04-19T21:02:55.813Z,102269.16
2023-04-19T21:05:22.475Z,102272.75
2023-04-19T21:07:48.947Z,102276.38
2023-04-19T21:10:17.252Z,102268.16
2023-04-19T21:12:43.939Z,102271.91
2023-04-19T21:15:12.083Z,102261.06
2023-04-19T21:17:38.836Z,102261.94
2023-04-19T21:20:12.118Z,102267.41
2023-04-19T21:22:46.317Z,102270.16
2023-04-19T21:25:13.511Z,102268.44
2023-04-19T21:27:41.818Z,102269.28
2023-04-19T21:30:09.521Z,102263.09
2023-04-19T21:32:36.273Z,102268.59
2023-04-19T21:35:03.840Z,102266.69
2023-04-19T21:37:30.622Z,102274.94
2023-04-19T21:39:57.775Z,102272.19
2023-04-19T21:42:24.736Z,102269.44
2023-04-19T21:44:51.213Z,102264.13
2023-04-19T21:47:17.972Z,102257.78
2023-04-19T21:49:44.580Z,102263.25
2023-04-19T21:52:11.088Z,102260.53
2023-04-19T21:54:37.628Z,102262.25
2023-04-19T21:57:04.362Z,102256.75
2023-04-19T21:59:31.123Z,102259.66
2023-04-19T22:01:58.613Z,102260.53
2023-04-19T22:04:25.278Z,102262.41
2023-04-19T22:06:51.982Z,102270.63
2023-04-19T22:09:18.596Z,102267.00
2023-04-19T22:11:45.837Z,102266.16
2023-04-19T22:14:12.786Z,102268.91
2023-04-19T22:16:39.296Z,102263.41
2023-04-19T22:19:05.806Z,102259.81
2023-04-19T22:21:32.730Z,102264.28
2023-04-19T22:23:59.228Z,102262.56
2023-04-19T22:26:26.832Z,102261.69
2023-04-19T22:28:54.338Z,102257.94
2023-04-19T22:31:20.880Z,102266.31
2023-04-19T22:33:47.383Z,102261.69
2023-04-19T22:36:13.817Z,102264.44
2023-04-19T22:38:40.482Z,102260.66
2023-04-19T22:41:07.038Z,102258.09
2023-04-19T22:43:33.536Z,102259.09
2023-04-19T22:46:01.058Z,102258.09
2023-04-19T22:48:29.976Z,102253.63
2023-04-19T22:50:56.787Z,102250.03
2023-04-19T22:53:23.867Z,102251.75
2023-04-19T22:55:50.539Z,102249.16
2023-04-19T22:58:17.109Z,102244.53
2023-04-19T23:00:43.573Z,102244.53
2023-04-19T23:03:10.035Z,102238.22
2023-04-19T23:05:36.552Z,102233.75
2023-04-19T23:08:04.098Z,102241.97
2023-04-19T23:10:31.683Z,102233.75
2023-04-19T23:12:58.339Z,102229.28
2023-04-19T23:15:25.191Z,102229.28
2023-04-19T23:17:52.452Z,102228.41
2023-04-19T23:20:19.060Z,102220.19
2023-04-19T23:22:45.552Z,102217.47
2023-04-19T23:25:12.285Z,102223.81
2023-04-19T23:27:38.787Z,102220.19
2023-04-19T23:30:10.460Z,102219.34
2023-04-19T23:32:36.999Z,102212.13
2023-04-19T23:35:03.713Z,102213.00
2023-04-19T23:37:30.206Z,102216.75
2023-04-19T23:39:56.685Z,102216.75
2023-04-19T23:42:23.292Z,102217.63
2023-04-19T23:44:54.175Z,102211.28
2023-04-19T23:47:21.548Z,102214.88
2023-04-19T23:49:48.288Z,102210.41
2023-04-19T23:52:14.985Z,102204.94
2023-04-19T23:54:41.590Z,102207.69
2023-04-19T23:57:08.053Z,102202.19
2023-04-19T23:59:36.286Z,102192.25
